sensor_id;sensor_type;location;lat;lon;timestamp;P1;durP1;ratioP1;P2;durP2;ratioP2
44434;SDS011;30138;20.964;105.830;2023-11-22T00:00:15;167.13;;;101.10;;
44434;SDS011;30138;20.964;105.830;2023-11-22T00:05:22;190.70;;;105.63;;
44434;SDS011;30138;20.964;105.830;2023-11-22T00:10:30;185.13;;;109.32;;
44434;SDS011;30138;20.964;105.830;2023-11-22T00:15:38;214.88;;;119.15;;
44434;SDS011;30138;20.964;105.830;2023-11-22T00:20:45;217.00;;;117.05;;
44434;SDS011;30138;20.964;105.830;2023-11-22T00:25:52;220.40;;;121.95;;
44434;SDS011;30138;20.964;105.830;2023-11-22T00:31:01;212.80;;;118.88;;
44434;SDS011;30138;20.964;105.830;2023-11-22T00:36:09;215.13;;;118.30;;
44434;SDS011;30138;20.964;105.830;2023-11-22T00:41:15;217.50;;;116.20;;
44434;SDS011;30138;20.964;105.830;2023-11-22T00:46:24;209.00;;;115.78;;
44434;SDS011;30138;20.964;105.830;2023-11-22T00:51:31;205.95;;;114.30;;
44434;SDS011;30138;20.964;105.830;2023-11-22T00:56:38;200.25;;;110.07;;
44434;SDS011;30138;20.964;105.830;2023-11-22T01:01:46;198.80;;;112.45;;
44434;SDS011;30138;20.964;105.830;2023-11-22T01:06:53;191.85;;;108.68;;
44434;SDS011;30138;20.964;105.830;2023-11-22T01:11:59;196.93;;;108.75;;
44434;SDS011;30138;20.964;105.830;2023-11-22T01:17:08;183.88;;;104.82;;
44434;SDS011;30138;20.964;105.830;2023-11-22T01:22:16;191.20;;;109.05;;
44434;SDS011;30138;20.964;105.830;2023-11-22T01:27:23;178.98;;;104.85;;
44434;SDS011;30138;20.964;105.830;2023-11-22T01:32:31;177.45;;;105.57;;
44434;SDS011;30138;20.964;105.830;2023-11-22T01:37:38;172.07;;;102.82;;
44434;SDS011;30138;20.964;105.830;2023-11-22T01:42:44;173.20;;;102.72;;
44434;SDS011;30138;20.964;105.830;2023-11-22T01:47:52;167.90;;;103.32;;
44434;SDS011;30138;20.964;105.830;2023-11-22T01:52:59;173.45;;;103.90;;
44434;SDS011;30138;20.964;105.830;2023-11-22T01:58:07;174.80;;;103.10;;
44434;SDS011;30138;20.964;105.830;2023-11-22T02:03:16;170.93;;;100.50;;
44434;SDS011;30138;20.964;105.830;2023-11-22T02:08:22;159.68;;;97.40;;
44434;SDS011;30138;20.964;105.830;2023-11-22T02:13:29;165.48;;;98.43;;
44434;SDS011;30138;20.964;105.830;2023-11-22T02:18:37;174.38;;;97.85;;
44434;SDS011;30138;20.964;105.830;2023-11-22T02:23:45;165.00;;;98.20;;
44434;SDS011;30138;20.964;105.830;2023-11-22T02:28:52;170.45;;;96.38;;
44434;SDS011;30138;20.964;105.830;2023-11-22T02:33:58;164.10;;;97.22;;
44434;SDS011;30138;20.964;105.830;2023-11-22T02:39:06;165.40;;;97.13;;
44434;SDS011;30138;20.964;105.830;2023-11-22T02:44:13;160.95;;;96.60;;
44434;SDS011;30138;20.964;105.830;2023-11-22T02:49:19;159.55;;;93.60;;
44434;SDS011;30138;20.964;105.830;2023-11-22T02:54:27;162.57;;;98.93;;
44434;SDS011;30138;20.964;105.830;2023-11-22T02:59:34;152.65;;;97.88;;
44434;SDS011;30138;20.964;105.830;2023-11-22T03:04:40;172.50;;;103.90;;
44434;SDS011;30138;20.964;105.830;2023-11-22T03:09:49;185.55;;;114.55;;
44434;SDS011;30138;20.964;105.830;2023-11-22T03:14:56;204.18;;;124.38;;
44434;SDS011;30138;20.964;105.830;2023-11-22T03:20:05;194.85;;;117.95;;
44434;SDS011;30138;20.964;105.830;2023-11-22T03:25:14;208.45;;;126.82;;
44434;SDS011;30138;20.964;105.830;2023-11-22T03:30:21;221.43;;;131.43;;
44434;SDS011;30138;20.964;105.830;2023-11-22T03:35:28;220.30;;;130.63;;
44434;SDS011;30138;20.964;105.830;2023-11-22T03:40:37;216.90;;;134.40;;
44434;SDS011;30138;20.964;105.830;2023-11-22T03:45:43;222.50;;;133.85;;
44434;SDS011;30138;20.964;105.830;2023-11-22T03:50:50;210.88;;;129.73;;
44434;SDS011;30138;20.964;105.830;2023-11-22T03:55:59;212.10;;;127.95;;
44434;SDS011;30138;20.964;105.830;2023-11-22T04:01:06;201.50;;;129.15;;
44434;SDS011;30138;20.964;105.830;2023-11-22T04:06:12;200.77;;;126.85;;
44434;SDS011;30138;20.964;105.830;2023-11-22T04:11:20;202.48;;;126.15;;
44434;SDS011;30138;20.964;105.830;2023-11-22T04:16:29;208.52;;;127.28;;
44434;SDS011;30138;20.964;105.830;2023-11-22T04:21:36;184.88;;;120.70;;
44434;SDS011;30138;20.964;105.830;2023-11-22T04:26:45;189.10;;;118.10;;
44434;SDS011;30138;20.964;105.830;2023-11-22T04:31:51;187.10;;;115.88;;
44434;SDS011;30138;20.964;105.830;2023-11-22T04:36:59;184.05;;;115.32;;
44434;SDS011;30138;20.964;105.830;2023-11-22T04:42:09;172.52;;;112.80;;
44434;SDS011;30138;20.964;105.830;2023-11-22T04:47:15;171.98;;;110.78;;
44434;SDS011;30138;20.964;105.830;2023-11-22T04:52:23;170.40;;;109.75;;
44434;SDS011;30138;20.964;105.830;2023-11-22T04:57:33;164.20;;;110.25;;
44434;SDS011;30138;20.964;105.830;2023-11-22T05:02:40;181.75;;;114.25;;
44434;SDS011;30138;20.964;105.830;2023-11-22T05:07:46;166.60;;;107.47;;
44434;SDS011;30138;20.964;105.830;2023-11-22T05:12:54;164.63;;;105.72;;
44434;SDS011;30138;20.964;105.830;2023-11-22T05:18:01;154.35;;;101.72;;
44434;SDS011;30138;20.964;105.830;2023-11-22T05:23:08;163.02;;;103.22;;
44434;SDS011;30138;20.964;105.830;2023-11-22T05:28:18;163.48;;;102.32;;
44434;SDS011;30138;20.964;105.830;2023-11-22T05:33:25;163.13;;;106.28;;
44434;SDS011;30138;20.964;105.830;2023-11-22T05:38:33;156.35;;;101.20;;
44434;SDS011;30138;20.964;105.830;2023-11-22T05:43:41;159.23;;;102.20;;
44434;SDS011;30138;20.964;105.830;2023-11-22T05:48:48;159.50;;;101.75;;
44434;SDS011;30138;20.964;105.830;2023-11-22T05:53:55;158.15;;;101.22;;
44434;SDS011;30138;20.964;105.830;2023-11-22T05:59:04;162.38;;;103.68;;
44434;SDS011;30138;20.964;105.830;2023-11-22T06:04:10;153.27;;;100.45;;
44434;SDS011;30138;20.964;105.830;2023-11-22T06:09:16;157.52;;;100.45;;
44434;SDS011;30138;20.964;105.830;2023-11-22T06:14:27;156.10;;;99.72;;
44434;SDS011;30138;20.964;105.830;2023-11-22T06:19:33;147.18;;;98.20;;
44434;SDS011;30138;20.964;105.830;2023-11-22T06:24:40;167.88;;;104.40;;
44434;SDS011;30138;20.964;105.830;2023-11-22T06:29:51;158.02;;;101.30;;
44434;SDS011;30138;20.964;105.830;2023-11-22T06:34:57;150.77;;;101.53;;
44434;SDS011;30138;20.964;105.830;2023-11-22T06:40:05;150.23;;;98.78;;
44434;SDS011;30138;20.964;105.830;2023-11-22T06:45:17;159.43;;;102.70;;
44434;SDS011;30138;20.964;105.830;2023-11-22T06:50:23;158.48;;;102.20;;
44434;SDS011;30138;20.964;105.830;2023-11-22T06:55:29;147.60;;;98.88;;
44434;SDS011;30138;20.964;105.830;2023-11-22T07:00:37;146.95;;;95.65;;
44434;SDS011;30138;20.964;105.830;2023-11-22T07:05:45;152.18;;;97.35;;
44434;SDS011;30138;20.964;105.830;2023-11-22T07:10:52;159.35;;;98.40;;
44434;SDS011;30138;20.964;105.830;2023-11-22T07:16:05;151.48;;;95.95;;
44434;SDS011;30138;20.964;105.830;2023-11-22T07:21:11;153.90;;;98.95;;
44434;SDS011;30138;20.964;105.830;2023-11-22T07:26:18;159.57;;;101.03;;
44434;SDS011;30138;20.964;105.830;2023-11-22T07:31:26;162.52;;;107.97;;
44434;SDS011;30138;20.964;105.830;2023-11-22T07:36:33;158.32;;;103.22;;
44434;SDS011;30138;20.964;105.830;2023-11-22T07:41:41;179.85;;;113.38;;
44434;SDS011;30138;20.964;105.830;2023-11-22T07:46:52;177.93;;;114.13;;
44434;SDS011;30138;20.964;105.830;2023-11-22T07:51:58;171.27;;;112.03;;
44434;SDS011;30138;20.964;105.830;2023-11-22T07:57:06;170.70;;;114.30;;
44434;SDS011;30138;20.964;105.830;2023-11-22T08:02:14;184.52;;;115.13;;
44434;SDS011;30138;20.964;105.830;2023-11-22T08:07:20;185.98;;;118.25;;
44434;SDS011;30138;20.964;105.830;2023-11-22T08:12:28;180.60;;;115.45;;
44434;SDS011;30138;20.964;105.830;2023-11-22T08:17:36;193.30;;;119.38;;
44434;SDS011;30138;20.964;105.830;2023-11-22T08:22:42;195.55;;;121.40;;
44434;SDS011;30138;20.964;105.830;2023-11-22T08:27:50;174.38;;;109.97;;
44434;SDS011;30138;20.964;105.830;2023-11-22T08:32:58;181.68;;;114.25;;
44434;SDS011;30138;20.964;105.830;2023-11-22T08:38:04;170.30;;;109.88;;
44434;SDS011;30138;20.964;105.830;2023-11-22T08:43:11;177.88;;;112.47;;
44434;SDS011;30138;20.964;105.830;2023-11-22T08:48:19;177.88;;;112.07;;
44434;SDS011;30138;20.964;105.830;2023-11-22T08:53:25;177.20;;;111.47;;
44434;SDS011;30138;20.964;105.830;2023-11-22T08:58:32;172.07;;;106.10;;
44434;SDS011;30138;20.964;105.830;2023-11-22T09:03:40;170.95;;;107.13;;
44434;SDS011;30138;20.964;105.830;2023-11-22T09:08:47;145.88;;;97.45;;
44434;SDS011;30138;20.964;105.830;2023-11-22T09:13:53;163.73;;;103.07;;
44434;SDS011;30138;20.964;105.830;2023-11-22T09:19:01;153.40;;;99.45;;
44434;SDS011;30138;20.964;105.830;2023-11-22T09:24:07;165.88;;;106.57;;
44434;SDS011;30138;20.964;105.830;2023-11-22T09:29:14;175.55;;;107.20;;
44434;SDS011;30138;20.964;105.830;2023-11-22T09:34:21;170.55;;;106.10;;
44434;SDS011;30138;20.964;105.830;2023-11-22T09:39:28;176.23;;;109.60;;
44434;SDS011;30138;20.964;105.830;2023-11-22T09:44:34;166.18;;;105.65;;
44434;SDS011;30138;20.964;105.830;2023-11-22T09:49:42;168.43;;;104.93;;
44434;SDS011;30138;20.964;105.830;2023-11-22T09:54:51;182.43;;;110.00;;
44434;SDS011;30138;20.964;105.830;2023-11-22T09:59:57;177.27;;;111.78;;
44434;SDS011;30138;20.964;105.830;2023-11-22T10:05:12;169.25;;;111.43;;
44434;SDS011;30138;20.964;105.830;2023-11-22T10:10:18;186.43;;;113.50;;
44434;SDS011;30138;20.964;105.830;2023-11-22T10:15:27;195.25;;;116.03;;
44434;SDS011;30138;20.964;105.830;2023-11-22T10:20:39;194.48;;;121.50;;
44434;SDS011;30138;20.964;105.830;2023-11-22T10:25:48;209.48;;;123.80;;
44434;SDS011;30138;20.964;105.830;2023-11-22T10:30:55;208.80;;;121.20;;
44434;SDS011;30138;20.964;105.830;2023-11-22T10:36:03;199.10;;;119.30;;
44434;SDS011;30138;20.964;105.830;2023-11-22T10:41:11;205.50;;;120.35;;
44434;SDS011;30138;20.964;105.830;2023-11-22T10:46:17;202.05;;;119.10;;
44434;SDS011;30138;20.964;105.830;2023-11-22T10:51:28;207.82;;;121.72;;
44434;SDS011;30138;20.964;105.830;2023-11-22T10:56:38;211.68;;;123.28;;
44434;SDS011;30138;20.964;105.830;2023-11-22T11:01:45;202.73;;;118.75;;
44434;SDS011;30138;20.964;105.830;2023-11-22T11:06:56;197.25;;;119.30;;
44434;SDS011;30138;20.964;105.830;2023-11-22T11:12:04;189.77;;;117.50;;
44434;SDS011;30138;20.964;105.830;2023-11-22T11:17:11;201.50;;;120.32;;
44434;SDS011;30138;20.964;105.830;2023-11-22T11:22:20;201.75;;;120.45;;
44434;SDS011;30138;20.964;105.830;2023-11-22T11:27:26;200.52;;;120.72;;
44434;SDS011;30138;20.964;105.830;2023-11-22T11:32:33;201.75;;;118.68;;
44434;SDS011;30138;20.964;105.830;2023-11-22T11:37:42;193.30;;;119.80;;
44434;SDS011;30138;20.964;105.830;2023-11-22T11:43:05;208.90;;;122.95;;
44434;SDS011;30138;20.964;105.830;2023-11-22T11:48:11;218.82;;;130.48;;
44434;SDS011;30138;20.964;105.830;2023-11-22T11:53:20;227.52;;;134.23;;
44434;SDS011;30138;20.964;105.830;2023-11-22T11:58:28;238.38;;;139.40;;
44434;SDS011;30138;20.964;105.830;2023-11-22T12:03:34;247.02;;;142.80;;
44434;SDS011;30138;20.964;105.830;2023-11-22T12:08:43;249.75;;;149.65;;
44434;SDS011;30138;20.964;105.830;2023-11-22T12:13:49;252.18;;;154.27;;
44434;SDS011;30138;20.964;105.830;2023-11-22T12:18:56;262.38;;;154.80;;
44434;SDS011;30138;20.964;105.830;2023-11-22T12:24:04;264.13;;;154.60;;
44434;SDS011;30138;20.964;105.830;2023-11-22T12:29:12;264.00;;;155.98;;
44434;SDS011;30138;20.964;105.830;2023-11-22T12:34:20;286.73;;;165.80;;
44434;SDS011;30138;20.964;105.830;2023-11-22T12:39:33;291.83;;;176.13;;
44434;SDS011;30138;20.964;105.830;2023-11-22T12:44:47;296.63;;;174.87;;
44434;SDS011;30138;20.964;105.830;2023-11-22T12:49:53;300.88;;;183.63;;
44434;SDS011;30138;20.964;105.830;2023-11-22T12:55:01;290.95;;;175.57;;
44434;SDS011;30138;20.964;105.830;2023-11-22T13:00:10;286.55;;;170.60;;
44434;SDS011;30138;20.964;105.830;2023-11-22T13:05:17;281.40;;;167.88;;
44434;SDS011;30138;20.964;105.830;2023-11-22T13:10:25;284.02;;;164.75;;
44434;SDS011;30138;20.964;105.830;2023-11-22T13:15:32;279.30;;;163.68;;
44434;SDS011;30138;20.964;105.830;2023-11-22T13:20:38;268.42;;;160.80;;
44434;SDS011;30138;20.964;105.830;2023-11-22T13:25:46;273.55;;;156.90;;
44434;SDS011;30138;20.964;105.830;2023-11-22T13:30:52;261.85;;;157.43;;
44434;SDS011;30138;20.964;105.830;2023-11-22T13:35:59;257.23;;;154.10;;
44434;SDS011;30138;20.964;105.830;2023-11-22T13:41:07;252.70;;;151.15;;
44434;SDS011;30138;20.964;105.830;2023-11-22T13:46:14;261.00;;;148.57;;
44434;SDS011;30138;20.964;105.830;2023-11-22T13:51:20;244.73;;;148.70;;
44434;SDS011;30138;20.964;105.830;2023-11-22T13:56:29;255.35;;;147.95;;
44434;SDS011;30138;20.964;105.830;2023-11-22T14:01:36;244.90;;;145.15;;
44434;SDS011;30138;20.964;105.830;2023-11-22T14:06:43;238.80;;;143.77;;
44434;SDS011;30138;20.964;105.830;2023-11-22T14:11:52;236.02;;;143.27;;
44434;SDS011;30138;20.964;105.830;2023-11-22T14:17:00;238.95;;;140.77;;
44434;SDS011;30138;20.964;105.830;2023-11-22T14:22:07;225.48;;;139.65;;
44434;SDS011;30138;20.964;105.830;2023-11-22T14:27:17;233.35;;;138.48;;
44434;SDS011;30138;20.964;105.830;2023-11-22T14:32:24;225.60;;;138.35;;
44434;SDS011;30138;20.964;105.830;2023-11-22T14:37:30;229.60;;;136.77;;
44434;SDS011;30138;20.964;105.830;2023-11-22T14:42:39;223.90;;;136.55;;
44434;SDS011;30138;20.964;105.830;2023-11-22T14:47:46;220.95;;;134.68;;
44434;SDS011;30138;20.964;105.830;2023-11-22T14:52:53;230.13;;;137.85;;
44434;SDS011;30138;20.964;105.830;2023-11-22T14:58:02;218.60;;;136.45;;
44434;SDS011;30138;20.964;105.830;2023-11-22T15:03:08;221.63;;;138.27;;
44434;SDS011;30138;20.964;105.830;2023-11-22T15:08:15;215.82;;;134.90;;
44434;SDS011;30138;20.964;105.830;2023-11-22T15:13:23;220.10;;;139.68;;
44434;SDS011;30138;20.964;105.830;2023-11-22T15:18:29;248.43;;;148.32;;
44434;SDS011;30138;20.964;105.830;2023-11-22T15:23:37;266.33;;;157.48;;
44434;SDS011;30138;20.964;105.830;2023-11-22T15:28:45;254.40;;;153.60;;
44434;SDS011;30138;20.964;105.830;2023-11-22T15:33:52;273.50;;;157.20;;
44434;SDS011;30138;20.964;105.830;2023-11-22T15:38:59;286.13;;;165.45;;
44434;SDS011;30138;20.964;105.830;2023-11-22T15:44:08;284.05;;;168.63;;
44434;SDS011;30138;20.964;105.830;2023-11-22T15:49:17;298.00;;;176.27;;
44434;SDS011;30138;20.964;105.830;2023-11-22T15:54:25;329.55;;;192.07;;
44434;SDS011;30138;20.964;105.830;2023-11-22T15:59:35;324.77;;;192.88;;
44434;SDS011;30138;20.964;105.830;2023-11-22T16:04:41;334.77;;;195.07;;
44434;SDS011;30138;20.964;105.830;2023-11-22T16:09:48;321.95;;;190.55;;
44434;SDS011;30138;20.964;105.830;2023-11-22T16:14:56;338.60;;;197.18;;
44434;SDS011;30138;20.964;105.830;2023-11-22T16:20:02;331.90;;;201.07;;
44434;SDS011;30138;20.964;105.830;2023-11-22T16:25:13;329.42;;;202.20;;
44434;SDS011;30138;20.964;105.830;2023-11-22T16:30:26;340.20;;;206.20;;
44434;SDS011;30138;20.964;105.830;2023-11-22T16:35:33;358.05;;;207.85;;
44434;SDS011;30138;20.964;105.830;2023-11-22T16:40:40;340.23;;;207.35;;
44434;SDS011;30138;20.964;105.830;2023-11-22T16:45:50;332.95;;;204.23;;
44434;SDS011;30138;20.964;105.830;2023-11-22T16:50:56;337.55;;;202.90;;
44434;SDS011;30138;20.964;105.830;2023-11-22T16:56:02;332.23;;;199.25;;
44434;SDS011;30138;20.964;105.830;2023-11-22T17:01:11;319.63;;;192.75;;
44434;SDS011;30138;20.964;105.830;2023-11-22T17:06:17;319.88;;;194.55;;
44434;SDS011;30138;20.964;105.830;2023-11-22T17:11:24;305.33;;;186.45;;
44434;SDS011;30138;20.964;105.830;2023-11-22T17:16:32;305.17;;;183.27;;
44434;SDS011;30138;20.964;105.830;2023-11-22T17:21:38;299.35;;;179.63;;
44434;SDS011;30138;20.964;105.830;2023-11-22T17:26:46;286.05;;;174.65;;
44434;SDS011;30138;20.964;105.830;2023-11-22T17:31:55;288.05;;;176.80;;
44434;SDS011;30138;20.964;105.830;2023-11-22T17:37:03;290.23;;;173.52;;
44434;SDS011;30138;20.964;105.830;2023-11-22T17:42:12;277.85;;;170.27;;
44434;SDS011;30138;20.964;105.830;2023-11-22T17:47:21;271.73;;;165.88;;
44434;SDS011;30138;20.964;105.830;2023-11-22T17:52:33;276.08;;;163.27;;
44434;SDS011;30138;20.964;105.830;2023-11-22T17:57:39;272.25;;;161.90;;
44434;SDS011;30138;20.964;105.830;2023-11-22T18:02:49;260.90;;;159.75;;
44434;SDS011;30138;20.964;105.830;2023-11-22T18:07:56;252.43;;;153.68;;
44434;SDS011;30138;20.964;105.830;2023-11-22T18:13:02;258.70;;;153.45;;
44434;SDS011;30138;20.964;105.830;2023-11-22T18:18:13;251.75;;;147.02;;
44434;SDS011;30138;20.964;105.830;2023-11-22T18:23:20;240.65;;;142.80;;
44434;SDS011;30138;20.964;105.830;2023-11-22T18:28:27;230.90;;;140.95;;
44434;SDS011;30138;20.964;105.830;2023-11-22T18:33:36;240.13;;;142.13;;
44434;SDS011;30138;20.964;105.830;2023-11-22T18:38:42;223.50;;;136.40;;
44434;SDS011;30138;20.964;105.830;2023-11-22T18:43:49;225.80;;;136.63;;
44434;SDS011;30138;20.964;105.830;2023-11-22T18:48:58;222.65;;;136.63;;
44434;SDS011;30138;20.964;105.830;2023-11-22T18:54:05;226.02;;;135.57;;
44434;SDS011;30138;20.964;105.830;2023-11-22T18:59:12;230.07;;;137.55;;
44434;SDS011;30138;20.964;105.830;2023-11-22T19:04:22;232.65;;;135.23;;
44434;SDS011;30138;20.964;105.830;2023-11-22T19:09:29;221.82;;;136.38;;
44434;SDS011;30138;20.964;105.830;2023-11-22T19:14:35;227.23;;;134.68;;
44434;SDS011;30138;20.964;105.830;2023-11-22T19:19:43;221.13;;;138.90;;
44434;SDS011;30138;20.964;105.830;2023-11-22T19:24:49;217.45;;;133.07;;
44434;SDS011;30138;20.964;105.830;2023-11-22T19:29:56;220.32;;;136.00;;
44434;SDS011;30138;20.964;105.830;2023-11-22T19:35:07;221.18;;;135.13;;
44434;SDS011;30138;20.964;105.830;2023-11-22T19:40:14;223.75;;;135.73;;
44434;SDS011;30138;20.964;105.830;2023-11-22T19:45:20;219.07;;;134.75;;
44434;SDS011;30138;20.964;105.830;2023-11-22T19:50:29;222.52;;;133.27;;
44434;SDS011;30138;20.964;105.830;2023-11-22T19:55:36;213.63;;;132.50;;
44434;SDS011;30138;20.964;105.830;2023-11-22T20:00:43;223.45;;;133.40;;
44434;SDS011;30138;20.964;105.830;2023-11-22T20:05:52;229.48;;;134.82;;
44434;SDS011;30138;20.964;105.830;2023-11-22T20:10:59;227.13;;;132.10;;
44434;SDS011;30138;20.964;105.830;2023-11-22T20:16:06;214.85;;;130.98;;
44434;SDS011;30138;20.964;105.830;2023-11-22T20:21:14;211.95;;;130.18;;
44434;SDS011;30138;20.964;105.830;2023-11-22T20:26:21;223.65;;;128.70;;
44434;SDS011;30138;20.964;105.830;2023-11-22T20:31:27;217.68;;;129.15;;
44434;SDS011;30138;20.964;105.830;2023-11-22T20:36:35;216.02;;;126.65;;
44434;SDS011;30138;20.964;105.830;2023-11-22T20:41:41;214.73;;;128.48;;
44434;SDS011;30138;20.964;105.830;2023-11-22T20:46:47;211.05;;;126.50;;
44434;SDS011;30138;20.964;105.830;2023-11-22T20:51:56;215.00;;;126.07;;
44434;SDS011;30138;20.964;105.830;2023-11-22T20:57:02;206.40;;;124.15;;
44434;SDS011;30138;20.964;105.830;2023-11-22T21:02:08;209.98;;;127.53;;
44434;SDS011;30138;20.964;105.830;2023-11-22T21:07:16;206.52;;;127.00;;
44434;SDS011;30138;20.964;105.830;2023-11-22T21:12:22;226.50;;;129.52;;
44434;SDS011;30138;20.964;105.830;2023-11-22T21:17:28;211.35;;;127.85;;
44434;SDS011;30138;20.964;105.830;2023-11-22T21:22:35;210.35;;;128.70;;
44434;SDS011;30138;20.964;105.830;2023-11-22T21:27:42;210.32;;;127.45;;
44434;SDS011;30138;20.964;105.830;2023-11-22T21:32:50;218.60;;;129.88;;
44434;SDS011;30138;20.964;105.830;2023-11-22T21:37:59;232.88;;;134.38;;
44434;SDS011;30138;20.964;105.830;2023-11-22T21:43:06;223.02;;;136.70;;
44434;SDS011;30138;20.964;105.830;2023-11-22T21:48:12;215.20;;;135.90;;
44434;SDS011;30138;20.964;105.830;2023-11-22T21:53:20;228.40;;;139.75;;
44434;SDS011;30138;20.964;105.830;2023-11-22T21:58:26;231.13;;;141.45;;
44434;SDS011;30138;20.964;105.830;2023-11-22T22:03:32;239.43;;;141.57;;
44434;SDS011;30138;20.964;105.830;2023-11-22T22:08:40;245.00;;;147.25;;
44434;SDS011;30138;20.964;105.830;2023-11-22T22:13:46;257.15;;;150.63;;
44434;SDS011;30138;20.964;105.830;2023-11-22T22:18:52;253.52;;;151.15;;
44434;SDS011;30138;20.964;105.830;2023-11-22T22:24:01;245.80;;;152.85;;
44434;SDS011;30138;20.964;105.830;2023-11-22T22:29:09;253.13;;;151.25;;
44434;SDS011;30138;20.964;105.830;2023-11-22T22:34:15;245.07;;;150.77;;
44434;SDS011;30138;20.964;105.830;2023-11-22T22:39:26;250.85;;;155.00;;
44434;SDS011;30138;20.964;105.830;2023-11-22T22:44:32;254.40;;;152.55;;
44434;SDS011;30138;20.964;105.830;2023-11-22T22:49:39;255.75;;;152.35;;
44434;SDS011;30138;20.964;105.830;2023-11-22T22:54:49;261.80;;;152.65;;
44434;SDS011;30138;20.964;105.830;2023-11-22T22:59:56;257.25;;;155.30;;
44434;SDS011;30138;20.964;105.830;2023-11-22T23:05:02;255.07;;;149.52;;
44434;SDS011;30138;20.964;105.830;2023-11-22T23:10:11;255.70;;;152.38;;
44434;SDS011;30138;20.964;105.830;2023-11-22T23:15:18;252.25;;;150.85;;
44434;SDS011;30138;20.964;105.830;2023-11-22T23:20:26;265.52;;;153.43;;
44434;SDS011;30138;20.964;105.830;2023-11-22T23:25:35;267.92;;;153.25;;
44434;SDS011;30138;20.964;105.830;2023-11-22T23:30:44;259.88;;;158.10;;
44434;SDS011;30138;20.964;105.830;2023-11-22T23:35:51;265.17;;;157.73;;
44434;SDS011;30138;20.964;105.830;2023-11-22T23:41:00;268.52;;;159.13;;
44434;SDS011;30138;20.964;105.830;2023-11-22T23:46:07;262.25;;;158.93;;
44434;SDS011;30138;20.964;105.830;2023-11-22T23:51:13;268.30;;;158.45;;
44434;SDS011;30138;20.964;105.830;2023-11-22T23:56:22;281.08;;;162.93;;
